createdAt,value
2022-11-28T00:00:05.648Z,7.11
2022-11-28T00:01:05.643Z,7.11
2022-11-28T00:02:05.787Z,7.11
2022-11-28T00:03:05.755Z,7.08
2022-11-28T00:04:06.944Z,7.09
2022-11-28T00:05:05.614Z,7.11
2022-11-28T00:06:05.591Z,7.11
2022-11-28T00:07:05.563Z,7.12
2022-11-28T00:08:05.934Z,7.12
2022-11-28T00:09:05.539Z,7.12
2022-11-28T00:10:05.561Z,7.12
2022-11-28T00:11:05.542Z,7.12
2022-11-28T00:12:05.513Z,7.11
2022-11-28T00:13:05.493Z,7.11
2022-11-28T00:14:05.521Z,7.11
2022-11-28T00:15:05.483Z,7.14
2022-11-28T00:16:05.620Z,7.15
2022-11-28T00:17:05.453Z,7.15
2022-11-28T00:18:05.442Z,7.15
2022-11-28T00:19:05.433Z,7.15
2022-11-28T00:20:05.420Z,7.16
2022-11-28T00:21:05.407Z,7.16
2022-11-28T00:22:05.423Z,7.16
2022-11-28T00:23:05.430Z,7.15
2022-11-28T00:24:05.375Z,7.16
2022-11-28T00:25:05.359Z,7.15
2022-11-28T00:26:05.359Z,7.15
2022-11-28T00:27:05.871Z,7.16
2022-11-28T00:28:05.370Z,7.16
2022-11-28T00:29:05.326Z,7.18
2022-11-28T00:30:05.309Z,7.16
2022-11-28T00:31:05.289Z,7.18
2022-11-28T00:32:05.380Z,7.18
2022-11-28T00:33:05.270Z,7.18
2022-11-28T00:34:05.297Z,7.18
2022-11-28T00:35:05.251Z,7.18
2022-11-28T00:36:05.258Z,7.18
2022-11-28T00:37:05.251Z,7.21
2022-11-28T00:38:05.223Z,7.19
2022-11-28T00:39:05.208Z,7.21
2022-11-28T00:40:05.240Z,7.19
2022-11-28T00:41:05.181Z,7.19
2022-11-28T00:42:05.179Z,7.19
2022-11-28T00:43:05.161Z,7.19
2022-11-28T00:44:05.152Z,7.18
2022-11-28T00:45:05.158Z,7.16
2022-11-28T00:46:05.238Z,7.18
2022-11-28T00:47:05.114Z,7.16
2022-11-28T00:48:05.129Z,7.16
2022-11-28T00:49:05.113Z,7.16
2022-11-28T00:50:05.135Z,7.16
2022-11-28T00:51:05.103Z,7.16
2022-11-28T00:52:05.460Z,7.16
2022-11-28T00:53:05.050Z,7.15
2022-11-28T00:54:05.039Z,7.16
2022-11-28T00:55:05.026Z,7.18
2022-11-28T00:56:05.017Z,7.18
2022-11-28T00:57:05.865Z,7.19
2022-11-28T00:58:05.052Z,7.19
2022-11-28T00:59:04.999Z,7.19
2022-11-28T01:00:04.971Z,7.18
2022-11-28T01:01:04.995Z,7.19
2022-11-28T01:02:05.050Z,7.19
2022-11-28T01:03:04.957Z,7.21
2022-11-28T01:04:05.403Z,7.19
2022-11-28T01:05:04.912Z,7.21
2022-11-28T01:06:04.904Z,7.21
2022-11-28T01:07:04.888Z,7.21
2022-11-28T01:08:04.936Z,7.23
2022-11-28T01:09:04.888Z,7.23
2022-11-28T01:10:04.902Z,7.24
2022-11-28T01:11:04.842Z,7.24
2022-11-28T01:12:04.857Z,7.26
2022-11-28T01:13:04.824Z,7.27
2022-11-28T01:14:04.815Z,7.29
2022-11-28T01:15:04.795Z,7.26
2022-11-28T01:16:04.849Z,7.24
2022-11-28T01:17:04.791Z,7.24
2022-11-28T01:18:04.772Z,7.26
2022-11-28T01:19:04.833Z,7.26
2022-11-28T01:20:04.794Z,7.27
2022-11-28T01:21:04.733Z,7.27
2022-11-28T01:22:04.750Z,7.23
2022-11-28T01:23:04.716Z,7.23
2022-11-28T01:24:04.714Z,7.21
2022-11-28T01:25:04.697Z,7.24
2022-11-28T01:26:04.685Z,7.27
2022-11-28T01:27:04.662Z,7.29
2022-11-28T01:28:04.707Z,7.29
2022-11-28T01:29:04.680Z,7.29
2022-11-28T01:30:04.673Z,7.30
2022-11-28T01:31:04.735Z,7.30
2022-11-28T01:32:04.617Z,7.32
2022-11-28T01:33:04.684Z,7.32
2022-11-28T01:34:04.619Z,7.32
2022-11-28T01:35:04.603Z,7.30
2022-11-28T01:36:04.575Z,7.32
2022-11-28T01:37:04.630Z,7.32
2022-11-28T01:38:04.572Z,7.33
2022-11-28T01:39:04.556Z,7.29
2022-11-28T01:40:04.575Z,7.29
2022-11-28T01:41:04.565Z,7.29
2022-11-28T01:42:04.504Z,7.32
2022-11-28T01:43:04.524Z,7.32
2022-11-28T01:44:04.487Z,7.30
2022-11-28T01:45:04.486Z,7.32
2022-11-28T01:46:04.543Z,7.30
2022-11-28T01:47:04.536Z,7.30
2022-11-28T01:48:04.467Z,7.32
2022-11-28T01:49:04.450Z,7.33
2022-11-28T01:50:04.556Z,7.34
2022-11-28T01:51:04.439Z,7.34
2022-11-28T01:52:04.464Z,7.34
2022-11-28T01:53:05.244Z,7.34
2022-11-28T01:54:04.411Z,7.34
2022-11-28T01:55:04.362Z,7.33
2022-11-28T01:56:04.372Z,7.34
2022-11-28T01:57:05.373Z,7.36
2022-11-28T01:58:04.405Z,7.36
2022-11-28T01:59:04.327Z,7.37
2022-11-28T02:00:04.319Z,7.34
2022-11-28T02:01:04.340Z,7.34
2022-11-28T02:02:04.380Z,7.33
2022-11-28T02:03:04.306Z,7.36
2022-11-28T02:04:04.259Z,7.36
2022-11-28T02:05:04.297Z,7.36
2022-11-28T02:06:04.303Z,7.36
2022-11-28T02:07:04.232Z,7.36
2022-11-28T02:08:04.301Z,7.36
2022-11-28T02:09:04.267Z,7.34
2022-11-28T02:10:04.208Z,7.34
2022-11-28T02:11:04.184Z,7.36
2022-11-28T02:12:04.201Z,7.34
2022-11-28T02:13:04.159Z,7.34
2022-11-28T02:14:04.145Z,7.34
2022-11-28T02:15:04.159Z,7.34
2022-11-28T02:16:04.167Z,7.32
2022-11-28T02:17:04.119Z,7.32
2022-11-28T02:18:04.101Z,7.32
2022-11-28T02:19:04.137Z,7.30
2022-11-28T02:20:04.138Z,7.30
2022-11-28T02:21:04.074Z,7.32
2022-11-28T02:22:04.099Z,7.32
2022-11-28T02:23:04.067Z,7.32
2022-11-28T02:24:04.053Z,7.33
2022-11-28T02:25:04.055Z,7.32
2022-11-28T02:26:04.052Z,7.33
2022-11-28T02:27:04.040Z,7.36
2022-11-28T02:28:04.032Z,7.33
2022-11-28T02:29:04.031Z,7.33
2022-11-28T02:30:03.967Z,7.32
2022-11-28T02:31:04.087Z,7.32
2022-11-28T02:32:03.967Z,7.30
2022-11-28T02:33:03.971Z,7.30
2022-11-28T02:34:03.943Z,7.30
2022-11-28T02:35:03.917Z,7.30
2022-11-28T02:36:03.896Z,7.30
2022-11-28T02:37:03.964Z,7.32
2022-11-28T02:38:03.886Z,7.33
2022-11-28T02:39:03.876Z,7.32
2022-11-28T02:40:03.860Z,7.32
2022-11-28T02:41:03.844Z,7.30
2022-11-28T02:42:03.915Z,7.30
2022-11-28T02:43:03.854Z,7.29
2022-11-28T02:44:04.548Z,7.29
2022-11-28T02:45:03.801Z,7.30
2022-11-28T02:46:03.793Z,7.29
2022-11-28T02:47:03.815Z,7.29
2022-11-28T02:48:03.782Z,7.30
2022-11-28T02:49:03.830Z,7.27
2022-11-28T02:50:03.872Z,7.29
2022-11-28T02:51:03.745Z,7.27
2022-11-28T02:52:03.752Z,7.29
2022-11-28T02:53:03.738Z,7.29
2022-11-28T02:54:03.708Z,7.29
2022-11-28T02:55:03.740Z,7.29
2022-11-28T02:56:03.686Z,7.27
2022-11-28T02:57:03.681Z,7.26
2022-11-28T02:58:03.656Z,7.23
2022-11-28T02:59:03.697Z,7.26
2022-11-28T03:00:03.635Z,7.26
2022-11-28T03:01:03.738Z,7.27
2022-11-28T03:02:03.713Z,7.27
2022-11-28T03:03:03.608Z,7.27
2022-11-28T03:04:03.596Z,7.27
2022-11-28T03:05:03.621Z,7.26
2022-11-28T03:06:03.589Z,7.27
2022-11-28T03:07:03.589Z,7.27
2022-11-28T03:08:03.605Z,7.29
2022-11-28T03:09:03.544Z,7.30
2022-11-28T03:10:03.525Z,7.30
2022-11-28T03:11:03.528Z,7.32
2022-11-28T03:12:03.528Z,7.29
2022-11-28T03:13:03.505Z,7.32
2022-11-28T03:14:03.497Z,7.33
2022-11-28T03:15:03.493Z,7.33
2022-11-28T03:16:04.372Z,7.33
2022-11-28T03:17:03.477Z,7.33
2022-11-28T03:18:03.436Z,7.33
2022-11-28T03:19:03.431Z,7.32
2022-11-28T03:20:03.442Z,7.30
2022-11-28T03:21:03.409Z,7.32
2022-11-28T03:22:03.426Z,7.32
2022-11-28T03:23:03.387Z,7.32
2022-11-28T03:24:03.383Z,7.33
2022-11-28T03:25:03.366Z,7.34
2022-11-28T03:26:03.347Z,7.33
2022-11-28T03:27:03.355Z,7.30
2022-11-28T03:28:03.372Z,7.29
2022-11-28T03:29:03.360Z,7.29
2022-11-28T03:30:03.306Z,7.29
2022-11-28T03:31:03.407Z,7.30
2022-11-28T03:32:03.291Z,7.30
2022-11-28T03:33:03.312Z,7.32
2022-11-28T03:34:03.259Z,7.32
2022-11-28T03:35:03.253Z,7.34
2022-11-28T03:36:03.234Z,7.33
2022-11-28T03:37:03.270Z,7.33
2022-11-28T03:38:03.254Z,7.32
2022-11-28T03:39:03.208Z,7.32
2022-11-28T03:40:03.217Z,7.33
2022-11-28T03:41:03.191Z,7.36
2022-11-28T03:42:03.185Z,7.36
2022-11-28T03:43:03.192Z,7.36
2022-11-28T03:44:03.187Z,7.37
2022-11-28T03:45:03.136Z,7.36
2022-11-28T03:46:03.167Z,7.36
2022-11-28T03:47:03.164Z,7.37
2022-11-28T03:48:03.135Z,7.37
2022-11-28T03:49:03.090Z,7.36
2022-11-28T03:50:03.096Z,7.37
2022-11-28T03:51:03.071Z,7.33
2022-11-28T03:52:03.069Z,7.34
2022-11-28T03:53:03.071Z,7.36
2022-11-28T03:54:03.064Z,7.37
2022-11-28T03:55:03.031Z,7.39
2022-11-28T03:56:03.076Z,7.41
2022-11-28T03:57:03.035Z,7.42
2022-11-28T03:58:03.022Z,7.44
2022-11-28T03:59:03.015Z,7.44
2022-11-28T04:00:02.998Z,7.44
2022-11-28T04:01:03.051Z,7.41
2022-11-28T04:02:02.953Z,7.41
2022-11-28T04:03:03.036Z,7.42
2022-11-28T04:04:02.931Z,7.41
2022-11-28T04:05:02.915Z,7.37
2022-11-28T04:06:02.905Z,7.42
2022-11-28T04:07:02.896Z,7.41
2022-11-28T04:08:02.981Z,7.36
2022-11-28T04:09:02.895Z,7.37
2022-11-28T04:10:02.869Z,7.39
2022-11-28T04:11:02.865Z,7.39
2022-11-28T04:12:02.840Z,7.42
2022-11-28T04:13:02.830Z,7.41
2022-11-28T04:14:02.841Z,7.42
2022-11-28T04:15:02.800Z,7.44
2022-11-28T04:16:02.875Z,7.44
2022-11-28T04:17:02.843Z,7.45
2022-11-28T04:18:02.774Z,7.44
2022-11-28T04:19:02.782Z,7.44
2022-11-28T04:20:02.749Z,7.44
2022-11-28T04:21:02.736Z,7.44
2022-11-28T04:22:02.733Z,7.44
2022-11-28T04:23:02.711Z,7.44
2022-11-28T04:24:02.730Z,7.42
2022-11-28T04:25:02.692Z,7.42
2022-11-28T04:26:02.689Z,7.42
2022-11-28T04:27:02.669Z,7.44
2022-11-28T04:28:02.660Z,7.42
2022-11-28T04:29:02.674Z,7.44
2022-11-28T04:30:02.643Z,7.45
2022-11-28T04:31:02.636Z,7.45
2022-11-28T04:32:02.700Z,7.45
2022-11-28T04:33:02.605Z,7.45
2022-11-28T04:34:02.617Z,7.42
2022-11-28T04:35:02.601Z,7.41
2022-11-28T04:36:02.592Z,7.41
2022-11-28T04:37:08.335Z,7.42
2022-11-28T04:38:02.562Z,7.44
2022-11-28T04:39:02.569Z,7.45
2022-11-28T04:40:02.551Z,7.45
2022-11-28T04:41:02.520Z,7.47
2022-11-28T04:42:02.515Z,7.47
2022-11-28T04:43:02.497Z,7.47
2022-11-28T04:44:02.498Z,7.45
2022-11-28T04:45:02.517Z,7.45
2022-11-28T04:46:02.509Z,7.42
2022-11-28T04:47:02.463Z,7.41
2022-11-28T04:48:02.434Z,7.42
2022-11-28T04:49:02.484Z,7.41
2022-11-28T04:50:02.415Z,7.42
2022-11-28T04:51:02.433Z,7.42
2022-11-28T04:52:02.403Z,7.44
2022-11-28T04:53:02.389Z,7.44
2022-11-28T04:54:02.380Z,7.44
2022-11-28T04:55:02.374Z,7.44
2022-11-28T04:56:02.350Z,7.47
2022-11-28T04:57:02.361Z,7.45
2022-11-28T04:58:02.329Z,7.44
2022-11-28T04:59:02.311Z,7.45
2022-11-28T05:00:02.322Z,7.44
2022-11-28T05:01:02.378Z,7.42
2022-11-28T05:02:02.370Z,7.42
2022-11-28T05:03:02.311Z,7.42
2022-11-28T05:04:02.266Z,7.42
2022-11-28T05:05:02.249Z,7.42
2022-11-28T05:06:02.263Z,7.41
2022-11-28T05:07:02.225Z,7.41
2022-11-28T05:08:02.339Z,7.39
2022-11-28T05:09:02.227Z,7.39
2022-11-28T05:10:02.196Z,7.39
2022-11-28T05:11:02.179Z,7.37
2022-11-28T05:12:02.174Z,7.37
2022-11-28T05:13:02.156Z,7.37
2022-11-28T05:14:02.155Z,7.37
2022-11-28T05:15:02.156Z,7.36
2022-11-28T05:16:02.163Z,7.36
2022-11-28T05:17:02.121Z,7.36
2022-11-28T05:18:02.108Z,7.36
2022-11-28T05:19:02.089Z,7.36
2022-11-28T05:20:02.116Z,7.36
2022-11-28T05:21:02.068Z,7.34
2022-11-28T05:22:02.068Z,7.34
2022-11-28T05:23:02.048Z,7.34
2022-11-28T05:24:02.040Z,7.34
2022-11-28T05:25:02.073Z,7.34
2022-11-28T05:26:02.039Z,7.33
2022-11-28T05:27:02.036Z,7.34
2022-11-28T05:28:02.008Z,7.34
2022-11-28T05:29:02.051Z,7.34
2022-11-28T05:30:01.977Z,7.34
2022-11-28T05:31:02.024Z,7.33
2022-11-28T05:32:02.032Z,7.34
2022-11-28T05:33:01.949Z,7.33
2022-11-28T05:34:01.929Z,7.33
2022-11-28T05:35:01.916Z,7.34
2022-11-28T05:36:01.907Z,7.34
2022-11-28T05:37:02.012Z,7.34
2022-11-28T05:38:01.885Z,7.33
2022-11-28T05:39:01.873Z,7.32
2022-11-28T05:40:01.887Z,7.32
2022-11-28T05:41:01.888Z,7.30
2022-11-28T05:42:01.890Z,7.29
2022-11-28T05:43:01.863Z,7.32
2022-11-28T05:44:01.859Z,7.30
2022-11-28T05:45:01.808Z,7.32
2022-11-28T05:46:01.868Z,7.33
2022-11-28T05:47:01.898Z,7.32
2022-11-28T05:48:01.793Z,7.32
2022-11-28T05:49:01.872Z,7.33
2022-11-28T05:50:01.747Z,7.32
2022-11-28T05:51:01.740Z,7.30
2022-11-28T05:52:01.724Z,7.30
2022-11-28T05:53:01.737Z,7.32
2022-11-28T05:54:01.708Z,7.32
2022-11-28T05:55:01.758Z,7.30
2022-11-28T05:56:01.679Z,7.32
2022-11-28T05:57:01.673Z,7.33
2022-11-28T05:58:01.684Z,7.32
2022-11-28T05:59:01.649Z,7.34
2022-11-28T06:00:01.699Z,7.33
2022-11-28T06:01:01.626Z,7.33
2022-11-28T06:02:01.708Z,7.33
2022-11-28T06:03:01.965Z,7.33
2022-11-28T06:04:01.673Z,7.33
2022-11-28T06:05:16.191Z,7.33
2022-11-28T06:06:01.575Z,7.32
2022-11-28T06:07:01.589Z,7.30
2022-11-28T06:08:01.620Z,7.32
2022-11-28T06:09:01.537Z,7.32
2022-11-28T06:10:01.520Z,7.32
2022-11-28T06:11:01.526Z,7.32
2022-11-28T06:12:01.501Z,7.32
2022-11-28T06:13:01.516Z,7.30
2022-11-28T06:14:01.480Z,7.32
2022-11-28T06:15:01.470Z,7.32
2022-11-28T06:16:01.612Z,7.32
2022-11-28T06:17:01.594Z,7.33
2022-11-28T06:18:01.468Z,7.33
2022-11-28T06:19:01.451Z,7.32
2022-11-28T06:20:01.410Z,7.33
2022-11-28T06:21:01.413Z,7.33
2022-11-28T06:22:01.384Z,7.33
2022-11-28T06:23:01.406Z,7.33
2022-11-28T06:24:01.374Z,7.33
2022-11-28T06:25:01.361Z,7.32
2022-11-28T06:26:01.342Z,7.32
2022-11-28T06:27:01.337Z,7.34
2022-11-28T06:28:01.343Z,7.34
2022-11-28T06:29:01.347Z,7.34
2022-11-28T06:30:01.297Z,7.33
2022-11-28T06:31:01.291Z,7.33
2022-11-28T06:32:01.324Z,7.32
2022-11-28T06:33:01.292Z,7.32
2022-11-28T06:34:01.271Z,7.33
2022-11-28T06:35:01.283Z,7.33
2022-11-28T06:36:01.276Z,7.32
2022-11-28T06:37:01.223Z,7.33
2022-11-28T06:38:01.232Z,7.33
2022-11-28T06:39:01.213Z,7.32
2022-11-28T06:40:01.193Z,7.32
2022-11-28T06:41:01.175Z,7.33
2022-11-28T06:42:01.187Z,7.33
2022-11-28T06:43:01.180Z,7.34
2022-11-28T06:44:01.250Z,7.34
2022-11-28T06:45:01.129Z,7.34
2022-11-28T06:46:01.171Z,7.33
2022-11-28T06:47:01.116Z,7.32
2022-11-28T06:48:01.123Z,7.32
2022-11-28T06:49:01.085Z,7.32
2022-11-28T06:50:01.131Z,7.32
2022-11-28T06:51:01.071Z,7.32
2022-11-28T06:52:01.059Z,7.33
2022-11-28T06:53:01.068Z,7.30
2022-11-28T06:54:01.067Z,7.32
2022-11-28T06:55:01.026Z,7.32
2022-11-28T06:56:01.012Z,7.32
2022-11-28T06:57:00.997Z,7.32
2022-11-28T06:58:01.020Z,7.30
2022-11-28T06:59:00.979Z,7.32
2022-11-28T07:00:01.047Z,7.33
2022-11-28T07:01:01.028Z,7.30
2022-11-28T07:02:06.973Z,7.32
2022-11-28T07:03:00.962Z,7.32
2022-11-28T07:04:00.927Z,7.30
2022-11-28T07:05:00.944Z,7.33
2022-11-28T07:06:00.928Z,7.30
2022-11-28T07:07:00.948Z,7.32
2022-11-28T07:08:00.930Z,7.29
2022-11-28T07:09:00.863Z,7.30
2022-11-28T07:10:00.860Z,7.32
2022-11-28T07:11:00.842Z,7.32
2022-11-28T07:12:00.837Z,7.33
2022-11-28T07:13:05.209Z,7.32
2022-11-28T07:14:00.982Z,7.33
2022-11-28T07:15:00.836Z,7.33
2022-11-28T07:16:00.850Z,7.33
2022-11-28T07:17:00.883Z,7.32
2022-11-28T07:18:00.838Z,7.32
2022-11-28T07:19:00.756Z,7.34
2022-11-28T07:20:00.821Z,7.33
2022-11-28T07:21:00.745Z,7.33
2022-11-28T07:22:00.726Z,7.30
2022-11-28T07:23:00.751Z,7.32
2022-11-28T07:24:00.726Z,7.30
2022-11-28T07:25:00.694Z,7.32
2022-11-28T07:26:00.693Z,7.30
2022-11-28T07:27:00.664Z,7.30
2022-11-28T07:28:00.685Z,7.32
2022-11-28T07:29:00.644Z,7.30
2022-11-28T07:30:00.637Z,7.30
2022-11-28T07:31:00.620Z,7.29
2022-11-28T07:32:00.684Z,7.29
2022-11-28T07:33:00.630Z,7.30
2022-11-28T07:34:00.591Z,7.27
2022-11-28T07:35:00.577Z,7.27
2022-11-28T07:36:00.573Z,7.27
2022-11-28T07:37:00.554Z,7.27
2022-11-28T07:38:00.567Z,7.29
2022-11-28T07:39:00.537Z,7.30
2022-11-28T07:40:00.522Z,7.30
2022-11-28T07:41:00.531Z,7.32
2022-11-28T07:42:00.500Z,7.32
2022-11-28T07:43:00.516Z,7.33
2022-11-28T07:44:00.480Z,7.33
2022-11-28T07:45:00.471Z,7.33
2022-11-28T07:46:01.675Z,7.34
2022-11-28T07:47:00.551Z,7.34
2022-11-28T07:48:00.438Z,7.34
2022-11-28T07:49:00.433Z,7.34
2022-11-28T07:50:00.416Z,7.34
2022-11-28T07:51:00.406Z,7.34
2022-11-28T07:52:00.386Z,7.36
2022-11-28T07:53:05.626Z,7.36
2022-11-28T07:54:00.373Z,7.36
2022-11-28T07:55:00.360Z,7.37
2022-11-28T07:56:00.342Z,7.37
2022-11-28T07:57:15.656Z,7.37
2022-11-28T07:58:00.370Z,7.37
2022-11-28T07:59:03.228Z,7.39
2022-11-28T08:00:00.302Z,7.39
2022-11-28T08:01:00.290Z,7.39
2022-11-28T08:02:00.361Z,7.39
2022-11-28T08:03:00.296Z,7.39
2022-11-28T08:04:00.306Z,7.42
2022-11-28T08:05:00.336Z,7.41
2022-11-28T08:12:08.558Z,7.42
2022-11-28T08:12:13.485Z,7.48
2022-11-28T08:13:13.475Z,7.51
2022-11-28T08:14:13.462Z,7.51
2022-11-28T08:15:13.454Z,7.51
2022-11-28T08:16:13.488Z,7.54
2022-11-28T08:17:13.458Z,7.54
2022-11-28T08:18:13.435Z,7.55
2022-11-28T08:19:13.409Z,7.57
2022-11-28T08:20:13.394Z,7.57
2022-11-28T08:21:13.394Z,7.58
2022-11-28T08:22:13.404Z,7.58
2022-11-28T08:23:13.365Z,7.58
2022-11-28T08:24:13.346Z,7.58
2022-11-28T08:25:13.340Z,7.58
2022-11-28T08:26:13.329Z,7.60
2022-11-28T08:27:13.349Z,7.63
2022-11-28T08:28:13.308Z,7.63
2022-11-28T08:29:13.301Z,7.63
2022-11-28T08:30:13.281Z,7.66
2022-11-28T08:31:13.323Z,7.67
2022-11-28T08:32:13.283Z,7.67
2022-11-28T08:33:13.255Z,7.70
2022-11-28T08:34:13.254Z,7.71
2022-11-28T08:35:13.235Z,7.71
2022-11-28T08:36:13.218Z,7.74
2022-11-28T08:37:13.242Z,7.74
2022-11-28T08:38:13.198Z,7.74
2022-11-28T08:39:28.540Z,7.76
2022-11-28T08:40:13.193Z,7.77
2022-11-28T08:41:13.167Z,7.77
2022-11-28T08:42:13.181Z,7.81
2022-11-28T08:43:13.140Z,7.82
2022-11-28T08:44:13.137Z,7.82
2022-11-28T08:45:13.143Z,7.82
2022-11-28T08:46:13.234Z,7.82
2022-11-28T08:47:13.118Z,7.79
2022-11-28T08:48:13.089Z,7.76
2022-11-28T08:49:13.075Z,7.76
2022-11-28T08:50:13.066Z,7.77
2022-11-28T08:51:13.053Z,7.82
2022-11-28T08:52:13.065Z,7.82
2022-11-28T08:53:18.586Z,7.85
2022-11-28T08:54:13.031Z,7.85
2022-11-28T08:55:13.013Z,7.86
2022-11-28T08:56:13.009Z,7.88
2022-11-28T08:57:13.016Z,7.88
2022-11-28T08:58:12.976Z,7.89
2022-11-28T08:59:12.962Z,7.92
2022-11-28T09:00:12.963Z,7.92
2022-11-28T09:01:12.977Z,7.92
2022-11-28T09:02:12.958Z,7.94
2022-11-28T09:03:12.916Z,7.95
2022-11-28T09:04:12.955Z,7.94
2022-11-28T09:05:12.897Z,7.92
2022-11-28T09:06:12.888Z,7.91
2022-11-28T09:07:12.961Z,7.92
2022-11-28T09:08:12.938Z,7.94
2022-11-28T09:09:12.851Z,7.94
2022-11-28T09:10:12.837Z,7.95
2022-11-28T09:11:12.834Z,7.99
2022-11-28T09:12:12.841Z,8.00
2022-11-28T09:13:12.811Z,8.02
2022-11-28T09:14:12.796Z,8.02
2022-11-28T09:15:12.788Z,8.03
2022-11-28T09:16:12.775Z,8.04
2022-11-28T09:17:12.829Z,8.06
2022-11-28T09:18:12.751Z,8.04
2022-11-28T09:19:12.749Z,8.06
2022-11-28T09:20:12.730Z,8.06
2022-11-28T09:21:12.724Z,8.06
2022-11-28T09:22:12.732Z,8.06
2022-11-28T09:23:12.702Z,8.06
2022-11-28T09:24:12.685Z,8.06
2022-11-28T09:25:12.678Z,8.07
2022-11-28T09:26:12.663Z,8.07
2022-11-28T09:27:12.702Z,8.09
2022-11-28T09:28:12.641Z,8.09
2022-11-28T09:29:12.634Z,8.10
2022-11-28T09:30:12.617Z,8.09
2022-11-28T09:31:12.822Z,8.06
2022-11-28T09:32:12.651Z,8.06
2022-11-28T09:33:12.592Z,8.04
2022-11-28T09:34:12.575Z,8.06
2022-11-28T09:35:12.632Z,8.06
2022-11-28T09:36:12.554Z,8.07
2022-11-28T09:37:12.649Z,8.06
2022-11-28T09:38:12.528Z,8.06
2022-11-28T09:39:12.536Z,8.04
2022-11-28T09:40:13.760Z,8.06
2022-11-28T09:41:12.491Z,8.07
2022-11-28T09:42:12.513Z,8.06
2022-11-28T09:43:12.470Z,8.06
2022-11-28T09:44:12.467Z,8.09
2022-11-28T09:45:12.451Z,8.07
2022-11-28T09:46:12.464Z,8.09
2022-11-28T09:47:12.456Z,8.09
2022-11-28T09:48:12.424Z,8.09
2022-11-28T09:49:12.405Z,8.09
2022-11-28T09:50:12.417Z,8.10
2022-11-28T09:51:12.442Z,8.09
2022-11-28T09:52:12.438Z,8.12
2022-11-28T09:53:12.360Z,8.09
2022-11-28T09:54:12.358Z,8.06
2022-11-28T09:55:12.336Z,8.07
2022-11-28T09:56:12.343Z,8.09
2022-11-28T09:57:12.342Z,8.10
2022-11-28T09:58:12.314Z,8.12
2022-11-28T09:59:12.294Z,8.13
2022-11-28T10:00:12.288Z,8.12
2022-11-28T10:01:12.279Z,8.13
2022-11-28T10:02:12.287Z,8.13
2022-11-28T10:03:12.337Z,8.12
2022-11-28T10:04:12.376Z,8.14
2022-11-28T10:05:12.315Z,8.18
2022-11-28T10:06:12.228Z,8.20
2022-11-28T10:07:12.230Z,8.18
2022-11-28T10:08:12.197Z,8.21
2022-11-28T10:09:12.186Z,8.21
2022-11-28T10:10:12.183Z,8.20
2022-11-28T10:11:12.164Z,8.21
2022-11-28T10:12:12.184Z,8.24
2022-11-28T10:13:12.142Z,8.24
2022-11-28T10:14:12.194Z,8.21
2022-11-28T10:15:12.118Z,8.18
2022-11-28T10:16:12.247Z,8.13
2022-11-28T10:17:12.162Z,8.14
2022-11-28T10:18:12.089Z,8.14
2022-11-28T10:19:25.546Z,8.14
2022-11-28T10:20:12.088Z,8.14
2022-11-28T10:21:12.049Z,8.18
2022-11-28T10:22:12.069Z,8.21
2022-11-28T10:23:12.034Z,8.22
2022-11-28T10:24:12.032Z,8.25
2022-11-28T10:25:12.010Z,8.25
2022-11-28T10:26:12.001Z,8.28
2022-11-28T10:27:12.012Z,8.28
2022-11-28T10:28:11.977Z,8.31
2022-11-28T10:29:11.969Z,8.31
2022-11-28T10:30:11.997Z,8.32
2022-11-28T10:31:11.952Z,8.29
2022-11-28T10:32:11.958Z,8.28
2022-11-28T10:33:11.917Z,8.13
2022-11-28T10:34:11.924Z,8.14
2022-11-28T10:35:11.897Z,8.09
2022-11-28T10:36:11.889Z,8.13
2022-11-28T10:37:11.899Z,8.14
2022-11-28T10:38:11.868Z,8.20
2022-11-28T10:39:11.856Z,8.24
2022-11-28T10:40:11.877Z,8.24
2022-11-28T10:41:11.833Z,8.17
2022-11-28T10:42:11.860Z,8.09
2022-11-28T10:43:11.811Z,8.14
2022-11-28T10:44:14.779Z,8.20
2022-11-28T10:45:11.797Z,8.24
2022-11-28T10:46:11.851Z,8.29
2022-11-28T10:47:11.795Z,8.32
2022-11-28T10:48:38.012Z,8.31
2022-11-28T10:49:11.751Z,8.34
2022-11-28T10:50:11.727Z,8.34
2022-11-28T10:51:11.720Z,8.34
2022-11-28T10:52:11.734Z,8.29
2022-11-28T10:53:11.706Z,8.29
2022-11-28T10:54:11.687Z,8.32
2022-11-28T10:55:11.681Z,8.34
2022-11-28T10:56:11.940Z,8.37
2022-11-28T10:57:11.720Z,8.39
2022-11-28T10:58:11.664Z,8.37
2022-11-28T10:59:11.632Z,8.37
2022-11-28T11:00:11.613Z,8.40
2022-11-28T11:01:11.733Z,8.43
2022-11-28T11:02:11.592Z,8.45
2022-11-28T11:03:11.618Z,8.45
2022-11-28T11:04:11.646Z,8.43
2022-11-28T11:05:11.565Z,8.39
2022-11-28T11:06:11.551Z,8.32
2022-11-28T11:07:16.393Z,8.32
2022-11-28T11:08:11.628Z,8.40
2022-11-28T11:09:11.522Z,8.43
2022-11-28T11:10:11.500Z,8.43
2022-11-28T11:11:11.498Z,8.45
2022-11-28T11:12:11.479Z,8.47
2022-11-28T11:13:11.500Z,8.54
2022-11-28T11:14:11.458Z,8.58
2022-11-28T11:15:11.456Z,8.58
2022-11-28T11:16:11.609Z,8.61
2022-11-28T11:17:11.431Z,8.65
2022-11-28T11:18:11.447Z,8.67
2022-11-28T11:19:11.408Z,8.71
2022-11-28T11:20:11.393Z,8.75
2022-11-28T11:21:11.385Z,8.78
2022-11-28T11:22:11.373Z,8.80
2022-11-28T11:23:11.388Z,8.82
2022-11-28T11:24:11.349Z,8.80
2022-11-28T11:25:11.339Z,8.83
2022-11-28T11:26:11.326Z,8.82
2022-11-28T11:27:11.321Z,8.83
2022-11-28T11:28:11.332Z,8.86
2022-11-28T11:29:11.296Z,8.88
2022-11-28T11:30:11.285Z,8.91
2022-11-28T11:31:11.327Z,8.94
2022-11-28T11:32:11.254Z,8.96
2022-11-28T11:33:11.276Z,8.96
2022-11-28T11:34:11.248Z,8.96
2022-11-28T11:35:11.228Z,8.94
2022-11-28T11:36:11.213Z,8.97
2022-11-28T11:37:11.211Z,8.98
2022-11-28T11:38:11.214Z,8.98
2022-11-28T11:39:11.178Z,8.97
2022-11-28T11:40:11.176Z,8.98
2022-11-28T11:41:11.159Z,8.98
2022-11-28T11:42:11.152Z,9.00
2022-11-28T11:43:11.164Z,9.03
2022-11-28T11:44:11.128Z,9.01
2022-11-28T11:45:11.112Z,8.96
2022-11-28T11:46:11.234Z,8.91
2022-11-28T11:47:11.088Z,8.94
2022-11-28T11:48:11.104Z,8.94
2022-11-28T11:49:11.068Z,8.94
2022-11-28T11:50:11.064Z,8.97
2022-11-28T11:51:11.049Z,8.98
2022-11-28T11:52:11.035Z,9.00
2022-11-28T11:53:11.043Z,9.01
2022-11-28T11:54:11.014Z,9.03
2022-11-28T11:55:10.998Z,9.03
2022-11-28T11:56:10.996Z,9.03
2022-11-28T11:57:32.024Z,9.06
2022-11-28T11:58:10.998Z,9.04
2022-11-28T11:59:10.974Z,9.03
2022-11-28T12:00:10.947Z,9.04
2022-11-28T12:01:10.936Z,9.04
2022-11-28T12:02:10.990Z,9.08
2022-11-28T12:03:11.014Z,9.06
2022-11-28T12:04:30.639Z,9.06
2022-11-28T12:05:10.891Z,9.04
2022-11-28T12:06:15.105Z,9.08
2022-11-28T12:07:10.868Z,9.10
2022-11-28T12:08:10.887Z,9.13
2022-11-28T12:09:10.845Z,9.15
2022-11-28T12:10:10.841Z,9.17
2022-11-28T12:11:10.821Z,9.19
2022-11-28T12:12:10.813Z,9.20
2022-11-28T12:13:10.820Z,9.20
2022-11-28T12:14:10.791Z,9.20
2022-11-28T12:15:10.777Z,9.22
2022-11-28T12:16:10.811Z,9.22
2022-11-28T12:29:23.202Z,9.23
2022-11-28T12:29:28.132Z,9.22
2022-11-28T12:30:28.127Z,9.20
2022-11-28T12:31:28.211Z,9.20
2022-11-28T12:32:28.112Z,9.19
2022-11-28T12:33:28.111Z,9.19
2022-11-28T12:34:28.083Z,9.17
2022-11-28T12:35:28.062Z,9.16
2022-11-28T12:36:28.064Z,9.16
2022-11-28T12:37:42.088Z,9.16
2022-11-28T12:38:28.063Z,9.16
2022-11-28T12:39:28.024Z,9.13
2022-11-28T12:40:28.016Z,9.15
2022-11-28T12:41:32.408Z,9.15
2022-11-28T12:42:27.989Z,9.15
2022-11-28T12:43:27.998Z,9.15
2022-11-28T12:44:27.963Z,9.16
2022-11-28T12:45:27.960Z,9.17
2022-11-28T12:46:28.264Z,9.16
2022-11-28T12:47:27.938Z,9.16
2022-11-28T12:48:27.947Z,9.16
2022-11-28T12:49:27.912Z,9.15
2022-11-28T12:50:27.895Z,9.15
2022-11-28T12:51:27.899Z,9.13
2022-11-28T12:52:27.873Z,9.15
2022-11-28T12:53:27.891Z,9.12
2022-11-28T12:54:27.854Z,9.10
2022-11-28T12:55:27.843Z,9.12
2022-11-28T12:56:27.832Z,9.12
2022-11-28T12:57:27.823Z,9.10
2022-11-28T12:58:27.828Z,9.08
2022-11-28T12:59:27.799Z,9.08
2022-11-28T13:00:27.787Z,9.08
2022-11-28T13:01:27.889Z,9.08
2022-11-28T13:02:28.026Z,9.08
2022-11-28T13:03:27.822Z,9.10
2022-11-28T13:04:27.739Z,9.08
2022-11-28T13:05:27.746Z,9.08
2022-11-28T13:06:27.719Z,9.06
2022-11-28T13:07:27.739Z,9.06
2022-11-28T13:08:27.719Z,9.06
2022-11-28T13:09:27.689Z,9.06
2022-11-28T13:10:27.672Z,9.08
2022-11-28T13:11:27.669Z,9.08
2022-11-28T13:12:27.660Z,9.08
2022-11-28T13:13:27.675Z,9.08
2022-11-28T13:14:27.637Z,9.08
2022-11-28T13:15:27.640Z,9.08
2022-11-28T13:16:27.794Z,9.08
2022-11-28T13:17:27.599Z,9.06
2022-11-28T13:18:27.605Z,9.04
2022-11-28T13:19:27.575Z,9.04
2022-11-28T13:20:27.572Z,9.04
2022-11-28T13:21:27.551Z,9.04
2022-11-28T13:22:27.539Z,9.03
2022-11-28T13:23:27.565Z,9.03
2022-11-28T13:24:27.512Z,9.03
2022-11-28T13:25:27.515Z,9.03
2022-11-28T13:26:27.495Z,9.01
2022-11-28T13:27:27.486Z,9.01
2022-11-28T13:28:27.539Z,9.01
2022-11-28T13:29:27.467Z,9.01
2022-11-28T13:30:27.449Z,9.01
2022-11-28T13:31:27.515Z,9.03
2022-11-28T13:32:27.448Z,9.03
2022-11-28T13:33:27.440Z,9.00
2022-11-28T13:34:27.410Z,8.98